sensor_id;sensor_type;location;lat;lon;timestamp;P1;durP1;ratioP1;P2;durP2;ratioP2
3311;SDS011;1668;49.648;8.570;2023-11-21T00:00:00;7.97;;;2.50;;
3311;SDS011;1668;49.648;8.570;2023-11-21T00:02:27;7.00;;;2.27;;
3311;SDS011;1668;49.648;8.570;2023-11-21T00:04:55;4.93;;;2.10;;
3311;SDS011;1668;49.648;8.570;2023-11-21T00:07:22;8.07;;;2.20;;
3311;SDS011;1668;49.648;8.570;2023-11-21T00:09:48;5.53;;;2.27;;
3311;SDS011;1668;49.648;8.570;2023-11-21T00:12:16;5.47;;;2.73;;
3311;SDS011;1668;49.648;8.570;2023-11-21T00:14:42;6.03;;;2.10;;
3311;SDS011;1668;49.648;8.570;2023-11-21T00:17:13;7.80;;;2.60;;
3311;SDS011;1668;49.648;8.570;2023-11-21T00:19:42;5.27;;;2.13;;
3311;SDS011;1668;49.648;8.570;2023-11-21T00:22:10;3.13;;;1.87;;
3311;SDS011;1668;49.648;8.570;2023-11-21T00:24:37;5.80;;;2.53;;
3311;SDS011;1668;49.648;8.570;2023-11-21T00:27:04;7.53;;;3.10;;
3311;SDS011;1668;49.648;8.570;2023-11-21T00:29:32;6.17;;;2.07;;
3311;SDS011;1668;49.648;8.570;2023-11-21T00:31:57;5.47;;;2.63;;
3311;SDS011;1668;49.648;8.570;2023-11-21T00:34:24;5.23;;;2.20;;
3311;SDS011;1668;49.648;8.570;2023-11-21T00:36:51;4.77;;;2.30;;
3311;SDS011;1668;49.648;8.570;2023-11-21T00:39:19;8.60;;;2.43;;
3311;SDS011;1668;49.648;8.570;2023-11-21T00:41:46;5.03;;;2.60;;
3311;SDS011;1668;49.648;8.570;2023-11-21T00:44:13;7.43;;;3.33;;
3311;SDS011;1668;49.648;8.570;2023-11-21T00:46:41;7.10;;;2.70;;
3311;SDS011;1668;49.648;8.570;2023-11-21T00:49:08;5.93;;;2.30;;
3311;SDS011;1668;49.648;8.570;2023-11-21T00:51:34;7.03;;;2.67;;
3311;SDS011;1668;49.648;8.570;2023-11-21T00:54:01;4.83;;;2.43;;
3311;SDS011;1668;49.648;8.570;2023-11-21T00:56:29;8.30;;;2.30;;
3311;SDS011;1668;49.648;8.570;2023-11-21T00:58:56;6.80;;;2.40;;
3311;SDS011;1668;49.648;8.570;2023-11-21T01:01:23;5.33;;;2.40;;
3311;SDS011;1668;49.648;8.570;2023-11-21T01:03:50;6.70;;;2.60;;
3311;SDS011;1668;49.648;8.570;2023-11-21T01:06:17;3.40;;;1.80;;
3311;SDS011;1668;49.648;8.570;2023-11-21T01:08:44;7.50;;;2.47;;
3311;SDS011;1668;49.648;8.570;2023-11-21T01:11:11;6.40;;;2.90;;
3311;SDS011;1668;49.648;8.570;2023-11-21T01:13:40;6.00;;;2.40;;
3311;SDS011;1668;49.648;8.570;2023-11-21T01:16:07;4.67;;;2.33;;
3311;SDS011;1668;49.648;8.570;2023-11-21T01:18:34;10.07;;;2.90;;
3311;SDS011;1668;49.648;8.570;2023-11-21T01:21:01;7.17;;;2.40;;
3311;SDS011;1668;49.648;8.570;2023-11-21T01:23:28;11.87;;;2.43;;
3311;SDS011;1668;49.648;8.570;2023-11-21T01:25:55;5.60;;;2.87;;
3311;SDS011;1668;49.648;8.570;2023-11-21T01:28:23;8.00;;;2.87;;
3311;SDS011;1668;49.648;8.570;2023-11-21T01:30:51;5.60;;;2.57;;
3311;SDS011;1668;49.648;8.570;2023-11-21T01:33:21;6.87;;;2.97;;
3311;SDS011;1668;49.648;8.570;2023-11-21T01:35:50;7.07;;;2.73;;
3311;SDS011;1668;49.648;8.570;2023-11-21T01:38:18;10.40;;;2.90;;
3311;SDS011;1668;49.648;8.570;2023-11-21T01:40:45;9.97;;;2.80;;
3311;SDS011;1668;49.648;8.570;2023-11-21T01:43:11;7.63;;;2.67;;
3311;SDS011;1668;49.648;8.570;2023-11-21T01:45:38;5.40;;;3.10;;
3311;SDS011;1668;49.648;8.570;2023-11-21T01:48:06;7.63;;;2.80;;
3311;SDS011;1668;49.648;8.570;2023-11-21T01:50:34;6.70;;;2.53;;
3311;SDS011;1668;49.648;8.570;2023-11-21T01:53:01;6.73;;;3.10;;
3311;SDS011;1668;49.648;8.570;2023-11-21T01:55:28;5.70;;;3.20;;
3311;SDS011;1668;49.648;8.570;2023-11-21T01:57:56;12.10;;;3.30;;
3311;SDS011;1668;49.648;8.570;2023-11-21T02:00:23;6.37;;;2.80;;
3311;SDS011;1668;49.648;8.570;2023-11-21T02:02:51;7.07;;;2.70;;
3311;SDS011;1668;49.648;8.570;2023-11-21T02:05:19;7.50;;;2.90;;
3311;SDS011;1668;49.648;8.570;2023-11-21T02:07:47;7.67;;;3.27;;
3311;SDS011;1668;49.648;8.570;2023-11-21T02:10:14;7.53;;;2.83;;
3311;SDS011;1668;49.648;8.570;2023-11-21T02:12:42;6.60;;;2.53;;
3311;SDS011;1668;49.648;8.570;2023-11-21T02:15:09;6.47;;;2.63;;
3311;SDS011;1668;49.648;8.570;2023-11-21T02:17:41;6.47;;;2.80;;
3311;SDS011;1668;49.648;8.570;2023-11-21T02:20:09;9.03;;;2.93;;
3311;SDS011;1668;49.648;8.570;2023-11-21T02:22:41;5.80;;;2.70;;
3311;SDS011;1668;49.648;8.570;2023-11-21T02:25:10;9.00;;;2.97;;
3311;SDS011;1668;49.648;8.570;2023-11-21T02:27:37;9.03;;;2.73;;
3311;SDS011;1668;49.648;8.570;2023-11-21T02:30:04;6.03;;;3.07;;
3311;SDS011;1668;49.648;8.570;2023-11-21T02:32:32;9.37;;;3.00;;
3311;SDS011;1668;49.648;8.570;2023-11-21T02:34:59;7.93;;;2.80;;
3311;SDS011;1668;49.648;8.570;2023-11-21T02:37:27;6.50;;;2.83;;
3311;SDS011;1668;49.648;8.570;2023-11-21T02:39:54;9.10;;;2.57;;
3311;SDS011;1668;49.648;8.570;2023-11-21T02:42:22;5.17;;;2.53;;
3311;SDS011;1668;49.648;8.570;2023-11-21T02:44:49;6.40;;;3.00;;
3311;SDS011;1668;49.648;8.570;2023-11-21T02:47:16;5.83;;;2.43;;
3311;SDS011;1668;49.648;8.570;2023-11-21T02:49:43;6.10;;;2.67;;
3311;SDS011;1668;49.648;8.570;2023-11-21T02:52:09;6.60;;;2.77;;
3311;SDS011;1668;49.648;8.570;2023-11-21T02:54:36;6.70;;;2.60;;
3311;SDS011;1668;49.648;8.570;2023-11-21T02:57:03;6.77;;;2.60;;
3311;SDS011;1668;49.648;8.570;2023-11-21T02:59:32;5.93;;;2.50;;
3311;SDS011;1668;49.648;8.570;2023-11-21T03:01:59;6.50;;;2.63;;
3311;SDS011;1668;49.648;8.570;2023-11-21T03:04:26;5.50;;;2.83;;
3311;SDS011;1668;49.648;8.570;2023-11-21T03:06:53;6.20;;;2.60;;
3311;SDS011;1668;49.648;8.570;2023-11-21T03:09:20;7.07;;;3.00;;
3311;SDS011;1668;49.648;8.570;2023-11-21T03:11:47;7.23;;;2.90;;
3311;SDS011;1668;49.648;8.570;2023-11-21T03:14:14;10.53;;;2.37;;
3311;SDS011;1668;49.648;8.570;2023-11-21T03:16:42;9.23;;;2.83;;
3311;SDS011;1668;49.648;8.570;2023-11-21T03:19:10;4.70;;;3.00;;
3311;SDS011;1668;49.648;8.570;2023-11-21T03:21:37;6.07;;;2.50;;
3311;SDS011;1668;49.648;8.570;2023-11-21T03:24:04;6.27;;;3.07;;
3311;SDS011;1668;49.648;8.570;2023-11-21T03:26:32;5.67;;;2.60;;
3311;SDS011;1668;49.648;8.570;2023-11-21T03:28:59;7.90;;;2.77;;
3311;SDS011;1668;49.648;8.570;2023-11-21T03:31:26;4.27;;;2.27;;
3311;SDS011;1668;49.648;8.570;2023-11-21T03:33:54;6.33;;;2.90;;
3311;SDS011;1668;49.648;8.570;2023-11-21T03:36:21;7.53;;;2.80;;
3311;SDS011;1668;49.648;8.570;2023-11-21T03:38:50;5.43;;;2.63;;
3311;SDS011;1668;49.648;8.570;2023-11-21T03:41:17;4.20;;;3.00;;
3311;SDS011;1668;49.648;8.570;2023-11-21T03:43:43;5.60;;;2.93;;
3311;SDS011;1668;49.648;8.570;2023-11-21T03:46:10;5.90;;;3.10;;
3311;SDS011;1668;49.648;8.570;2023-11-21T03:48:37;6.40;;;3.47;;
3311;SDS011;1668;49.648;8.570;2023-11-21T03:51:06;7.20;;;2.87;;
3311;SDS011;1668;49.648;8.570;2023-11-21T03:53:33;6.10;;;2.90;;
3311;SDS011;1668;49.648;8.570;2023-11-21T03:56:01;8.40;;;3.00;;
3311;SDS011;1668;49.648;8.570;2023-11-21T03:58:28;4.33;;;2.77;;
3311;SDS011;1668;49.648;8.570;2023-11-21T04:00:55;7.17;;;3.07;;
3311;SDS011;1668;49.648;8.570;2023-11-21T04:03:22;8.10;;;2.90;;
3311;SDS011;1668;49.648;8.570;2023-11-21T04:05:49;5.23;;;3.30;;
3311;SDS011;1668;49.648;8.570;2023-11-21T04:08:17;6.37;;;2.93;;
3311;SDS011;1668;49.648;8.570;2023-11-21T04:10:44;8.80;;;3.20;;
3311;SDS011;1668;49.648;8.570;2023-11-21T04:13:11;8.63;;;3.33;;
3311;SDS011;1668;49.648;8.570;2023-11-21T04:15:37;6.20;;;3.20;;
3311;SDS011;1668;49.648;8.570;2023-11-21T04:18:04;5.73;;;2.80;;
3311;SDS011;1668;49.648;8.570;2023-11-21T04:20:31;7.63;;;2.70;;
3311;SDS011;1668;49.648;8.570;2023-11-21T04:22:58;6.50;;;3.50;;
3311;SDS011;1668;49.648;8.570;2023-11-21T04:25:26;6.07;;;3.10;;
3311;SDS011;1668;49.648;8.570;2023-11-21T04:27:53;4.37;;;2.77;;
3311;SDS011;1668;49.648;8.570;2023-11-21T04:30:20;4.77;;;2.50;;
3311;SDS011;1668;49.648;8.570;2023-11-21T04:32:47;7.10;;;3.13;;
3311;SDS011;1668;49.648;8.570;2023-11-21T04:35:13;4.50;;;2.67;;
3311;SDS011;1668;49.648;8.570;2023-11-21T04:37:40;9.20;;;2.93;;
3311;SDS011;1668;49.648;8.570;2023-11-21T04:40:07;7.43;;;3.37;;
3311;SDS011;1668;49.648;8.570;2023-11-21T04:42:36;5.60;;;3.07;;
3311;SDS011;1668;49.648;8.570;2023-11-21T04:45:04;4.50;;;2.80;;
3311;SDS011;1668;49.648;8.570;2023-11-21T04:47:34;5.87;;;3.47;;
3311;SDS011;1668;49.648;8.570;2023-11-21T04:50:01;4.90;;;3.47;;
3311;SDS011;1668;49.648;8.570;2023-11-21T04:52:29;12.00;;;3.80;;
3311;SDS011;1668;49.648;8.570;2023-11-21T04:54:56;6.27;;;3.83;;
3311;SDS011;1668;49.648;8.570;2023-11-21T04:57:23;5.13;;;3.00;;
3311;SDS011;1668;49.648;8.570;2023-11-21T04:59:52;8.57;;;3.60;;
3311;SDS011;1668;49.648;8.570;2023-11-21T05:02:18;7.87;;;3.73;;
3311;SDS011;1668;49.648;8.570;2023-11-21T05:04:46;7.40;;;4.20;;
3311;SDS011;1668;49.648;8.570;2023-11-21T05:07:13;10.53;;;3.87;;
3311;SDS011;1668;49.648;8.570;2023-11-21T05:09:41;7.83;;;4.10;;
3311;SDS011;1668;49.648;8.570;2023-11-21T05:12:11;6.40;;;3.60;;
3311;SDS011;1668;49.648;8.570;2023-11-21T05:14:38;5.93;;;3.87;;
3311;SDS011;1668;49.648;8.570;2023-11-21T05:17:06;4.07;;;3.33;;
3311;SDS011;1668;49.648;8.570;2023-11-21T05:19:33;7.50;;;3.77;;
3311;SDS011;1668;49.648;8.570;2023-11-21T05:22:01;6.23;;;3.53;;
3311;SDS011;1668;49.648;8.570;2023-11-21T05:24:29;7.50;;;3.60;;
3311;SDS011;1668;49.648;8.570;2023-11-21T05:26:56;6.43;;;3.43;;
3311;SDS011;1668;49.648;8.570;2023-11-21T05:29:23;6.47;;;3.23;;
3311;SDS011;1668;49.648;8.570;2023-11-21T05:31:50;6.80;;;3.70;;
3311;SDS011;1668;49.648;8.570;2023-11-21T05:34:19;8.23;;;3.30;;
3311;SDS011;1668;49.648;8.570;2023-11-21T05:36:49;4.30;;;2.70;;
3311;SDS011;1668;49.648;8.570;2023-11-21T05:39:16;7.87;;;3.30;;
3311;SDS011;1668;49.648;8.570;2023-11-21T05:41:43;6.70;;;2.87;;
3311;SDS011;1668;49.648;8.570;2023-11-21T05:44:10;5.60;;;3.10;;
3311;SDS011;1668;49.648;8.570;2023-11-21T05:46:39;5.03;;;2.93;;
3311;SDS011;1668;49.648;8.570;2023-11-21T05:49:08;5.73;;;3.57;;
3311;SDS011;1668;49.648;8.570;2023-11-21T05:51:36;5.00;;;3.10;;
3311;SDS011;1668;49.648;8.570;2023-11-21T05:54:03;7.33;;;4.10;;
3311;SDS011;1668;49.648;8.570;2023-11-21T05:56:30;6.60;;;3.30;;
3311;SDS011;1668;49.648;8.570;2023-11-21T05:58:57;5.90;;;3.40;;
3311;SDS011;1668;49.648;8.570;2023-11-21T06:01:24;5.97;;;3.57;;
3311;SDS011;1668;49.648;8.570;2023-11-21T06:03:53;7.43;;;4.10;;
3311;SDS011;1668;49.648;8.570;2023-11-21T06:06:20;6.03;;;3.87;;
3311;SDS011;1668;49.648;8.570;2023-11-21T06:08:49;7.70;;;4.57;;
3311;SDS011;1668;49.648;8.570;2023-11-21T06:11:16;7.03;;;4.57;;
3311;SDS011;1668;49.648;8.570;2023-11-21T06:13:42;7.33;;;4.57;;
3311;SDS011;1668;49.648;8.570;2023-11-21T06:16:10;8.07;;;5.10;;
3311;SDS011;1668;49.648;8.570;2023-11-21T06:18:38;9.93;;;4.80;;
3311;SDS011;1668;49.648;8.570;2023-11-21T06:21:05;8.03;;;4.80;;
3311;SDS011;1668;49.648;8.570;2023-11-21T06:23:35;13.53;;;5.30;;
3311;SDS011;1668;49.648;8.570;2023-11-21T06:26:03;8.60;;;5.10;;
3311;SDS011;1668;49.648;8.570;2023-11-21T06:28:31;9.80;;;6.30;;
3311;SDS011;1668;49.648;8.570;2023-11-21T06:30:58;9.53;;;5.77;;
3311;SDS011;1668;49.648;8.570;2023-11-21T06:33:29;8.70;;;5.70;;
3311;SDS011;1668;49.648;8.570;2023-11-21T06:35:56;10.40;;;5.53;;
3311;SDS011;1668;49.648;8.570;2023-11-21T06:38:23;8.90;;;6.23;;
3311;SDS011;1668;49.648;8.570;2023-11-21T06:40:55;8.60;;;6.10;;
3311;SDS011;1668;49.648;8.570;2023-11-21T06:43:23;8.93;;;6.30;;
3311;SDS011;1668;49.648;8.570;2023-11-21T06:45:50;8.60;;;6.10;;
3311;SDS011;1668;49.648;8.570;2023-11-21T06:48:16;10.80;;;6.10;;
3311;SDS011;1668;49.648;8.570;2023-11-21T06:50:43;9.13;;;5.60;;
3311;SDS011;1668;49.648;8.570;2023-11-21T06:53:11;7.70;;;5.10;;
3311;SDS011;1668;49.648;8.570;2023-11-21T06:55:38;8.07;;;6.50;;
3311;SDS011;1668;49.648;8.570;2023-11-21T06:58:05;8.20;;;5.83;;
3311;SDS011;1668;49.648;8.570;2023-11-21T07:00:33;8.57;;;6.33;;
3311;SDS011;1668;49.648;8.570;2023-11-21T07:03:00;8.40;;;6.00;;
3311;SDS011;1668;49.648;8.570;2023-11-21T07:05:27;7.30;;;6.50;;
3311;SDS011;1668;49.648;8.570;2023-11-21T07:07:53;7.40;;;6.07;;
3311;SDS011;1668;49.648;8.570;2023-11-21T07:10:20;7.53;;;5.90;;
3311;SDS011;1668;49.648;8.570;2023-11-21T07:12:47;8.50;;;5.70;;
3311;SDS011;1668;49.648;8.570;2023-11-21T07:15:14;8.00;;;5.80;;
3311;SDS011;1668;49.648;8.570;2023-11-21T07:17:42;6.73;;;5.47;;
3311;SDS011;1668;49.648;8.570;2023-11-21T07:20:10;7.63;;;5.90;;
3311;SDS011;1668;49.648;8.570;2023-11-21T07:22:37;4.50;;;4.10;;
3311;SDS011;1668;49.648;8.570;2023-11-21T07:25:05;5.47;;;4.47;;
3311;SDS011;1668;49.648;8.570;2023-11-21T07:27:32;4.50;;;3.97;;
3311;SDS011;1668;49.648;8.570;2023-11-21T07:30:01;5.40;;;3.70;;
3311;SDS011;1668;49.648;8.570;2023-11-21T07:32:29;4.30;;;3.20;;
3311;SDS011;1668;49.648;8.570;2023-11-21T07:34:57;3.50;;;3.00;;
3311;SDS011;1668;49.648;8.570;2023-11-21T07:37:26;4.93;;;2.80;;
3311;SDS011;1668;49.648;8.570;2023-11-21T07:39:53;2.90;;;2.30;;
3311;SDS011;1668;49.648;8.570;2023-11-21T07:42:21;3.10;;;2.20;;
3311;SDS011;1668;49.648;8.570;2023-11-21T07:44:48;3.43;;;2.30;;
3311;SDS011;1668;49.648;8.570;2023-11-21T07:47:15;3.00;;;1.70;;
3311;SDS011;1668;49.648;8.570;2023-11-21T07:49:42;2.93;;;1.50;;
3311;SDS011;1668;49.648;8.570;2023-11-21T07:52:11;2.50;;;1.20;;
3311;SDS011;1668;49.648;8.570;2023-11-21T07:54:38;1.43;;;1.20;;
3311;SDS011;1668;49.648;8.570;2023-11-21T07:57:04;2.77;;;1.17;;
3311;SDS011;1668;49.648;8.570;2023-11-21T07:59:31;1.10;;;0.90;;
3311;SDS011;1668;49.648;8.570;2023-11-21T08:01:58;1.87;;;1.13;;
3311;SDS011;1668;49.648;8.570;2023-11-21T08:04:25;1.97;;;1.30;;
3311;SDS011;1668;49.648;8.570;2023-11-21T08:06:52;1.87;;;1.40;;
3311;SDS011;1668;49.648;8.570;2023-11-21T08:09:20;4.17;;;1.40;;
3311;SDS011;1668;49.648;8.570;2023-11-21T08:11:48;2.93;;;1.33;;
3311;SDS011;1668;49.648;8.570;2023-11-21T08:14:17;2.30;;;1.50;;
3311;SDS011;1668;49.648;8.570;2023-11-21T08:16:43;1.60;;;1.20;;
3311;SDS011;1668;49.648;8.570;2023-11-21T08:19:10;2.57;;;1.20;;
3311;SDS011;1668;49.648;8.570;2023-11-21T08:21:37;2.47;;;1.40;;
3311;SDS011;1668;49.648;8.570;2023-11-21T08:24:05;1.50;;;1.30;;
3311;SDS011;1668;49.648;8.570;2023-11-21T08:26:37;4.00;;;1.60;;
3311;SDS011;1668;49.648;8.570;2023-11-21T08:29:04;6.13;;;1.10;;
3311;SDS011;1668;49.648;8.570;2023-11-21T08:31:32;2.13;;;1.60;;
3311;SDS011;1668;49.648;8.570;2023-11-21T08:33:58;4.90;;;1.63;;
3311;SDS011;1668;49.648;8.570;2023-11-21T08:36:28;1.70;;;1.40;;
3311;SDS011;1668;49.648;8.570;2023-11-21T08:38:56;2.50;;;1.53;;
3311;SDS011;1668;49.648;8.570;2023-11-21T08:41:23;1.93;;;1.60;;
3311;SDS011;1668;49.648;8.570;2023-11-21T08:43:54;1.47;;;1.37;;
3311;SDS011;1668;49.648;8.570;2023-11-21T08:46:23;1.67;;;1.57;;
3311;SDS011;1668;49.648;8.570;2023-11-21T08:48:51;2.27;;;2.07;;
3311;SDS011;1668;49.648;8.570;2023-11-21T08:51:18;8.73;;;2.00;;
3311;SDS011;1668;49.648;8.570;2023-11-21T08:53:45;2.87;;;2.43;;
3311;SDS011;1668;49.648;8.570;2023-11-21T08:56:12;3.50;;;3.20;;
3311;SDS011;1668;49.648;8.570;2023-11-21T08:58:40;5.50;;;3.17;;
3311;SDS011;1668;49.648;8.570;2023-11-21T09:01:08;3.60;;;3.17;;
3311;SDS011;1668;49.648;8.570;2023-11-21T09:03:37;5.97;;;4.00;;
3311;SDS011;1668;49.648;8.570;2023-11-21T09:06:03;5.50;;;4.60;;
3311;SDS011;1668;49.648;8.570;2023-11-21T09:08:31;4.93;;;4.30;;
3311;SDS011;1668;49.648;8.570;2023-11-21T09:10:57;5.10;;;4.30;;
3311;SDS011;1668;49.648;8.570;2023-11-21T09:13:24;5.50;;;4.70;;
3311;SDS011;1668;49.648;8.570;2023-11-21T09:15:51;5.67;;;4.60;;
3311;SDS011;1668;49.648;8.570;2023-11-21T09:18:19;6.50;;;5.17;;
3311;SDS011;1668;49.648;8.570;2023-11-21T09:20:46;8.87;;;5.53;;
3311;SDS011;1668;49.648;8.570;2023-11-21T09:23:13;8.40;;;5.20;;
3311;SDS011;1668;49.648;8.570;2023-11-21T09:25:40;6.30;;;5.50;;
3311;SDS011;1668;49.648;8.570;2023-11-21T09:28:11;9.50;;;6.10;;
3311;SDS011;1668;49.648;8.570;2023-11-21T09:30:38;7.27;;;6.17;;
3311;SDS011;1668;49.648;8.570;2023-11-21T09:33:04;8.43;;;6.50;;
3311;SDS011;1668;49.648;8.570;2023-11-21T09:35:34;7.53;;;5.43;;
3311;SDS011;1668;49.648;8.570;2023-11-21T09:38:01;9.17;;;6.30;;
3311;SDS011;1668;49.648;8.570;2023-11-21T09:40:30;9.10;;;7.73;;
3311;SDS011;1668;49.648;8.570;2023-11-21T09:42:57;8.00;;;6.00;;
3311;SDS011;1668;49.648;8.570;2023-11-21T09:45:25;8.50;;;6.60;;
3311;SDS011;1668;49.648;8.570;2023-11-21T09:47:53;10.07;;;7.17;;
3311;SDS011;1668;49.648;8.570;2023-11-21T09:50:21;10.13;;;7.37;;
3311;SDS011;1668;49.648;8.570;2023-11-21T09:52:53;10.40;;;7.10;;
3311;SDS011;1668;49.648;8.570;2023-11-21T09:55:25;10.13;;;6.73;;
3311;SDS011;1668;49.648;8.570;2023-11-21T09:57:54;9.27;;;7.10;;
3311;SDS011;1668;49.648;8.570;2023-11-21T10:00:22;9.60;;;7.17;;
3311;SDS011;1668;49.648;8.570;2023-11-21T10:02:49;9.23;;;6.77;;
3311;SDS011;1668;49.648;8.570;2023-11-21T10:05:18;9.83;;;6.50;;
3311;SDS011;1668;49.648;8.570;2023-11-21T10:07:45;9.33;;;7.00;;
3311;SDS011;1668;49.648;8.570;2023-11-21T10:10:14;8.87;;;6.43;;
3311;SDS011;1668;49.648;8.570;2023-11-21T10:12:47;9.13;;;6.93;;
3311;SDS011;1668;49.648;8.570;2023-11-21T10:15:18;8.53;;;6.33;;
3311;SDS011;1668;49.648;8.570;2023-11-21T10:17:48;10.30;;;6.30;;
3311;SDS011;1668;49.648;8.570;2023-11-21T10:20:18;10.83;;;7.40;;
3311;SDS011;1668;49.648;8.570;2023-11-21T10:22:45;9.40;;;6.97;;
3311;SDS011;1668;49.648;8.570;2023-11-21T10:25:12;8.30;;;6.87;;
3311;SDS011;1668;49.648;8.570;2023-11-21T10:27:41;9.30;;;7.37;;
3311;SDS011;1668;49.648;8.570;2023-11-21T10:30:09;8.60;;;5.77;;
3311;SDS011;1668;49.648;8.570;2023-11-21T10:32:37;8.20;;;5.80;;
3311;SDS011;1668;49.648;8.570;2023-11-21T10:35:05;9.03;;;5.50;;
3311;SDS011;1668;49.648;8.570;2023-11-21T10:37:35;9.60;;;5.63;;
3311;SDS011;1668;49.648;8.570;2023-11-21T10:40:04;10.20;;;6.40;;
3311;SDS011;1668;49.648;8.570;2023-11-21T10:42:33;7.47;;;5.20;;
3311;SDS011;1668;49.648;8.570;2023-11-21T10:45:00;6.43;;;4.63;;
3311;SDS011;1668;49.648;8.570;2023-11-21T10:47:29;7.70;;;4.50;;
3311;SDS011;1668;49.648;8.570;2023-11-21T10:49:57;7.97;;;5.10;;
3311;SDS011;1668;49.648;8.570;2023-11-21T10:52:27;8.07;;;4.77;;
3311;SDS011;1668;49.648;8.570;2023-11-21T10:54:54;9.90;;;4.70;;
3311;SDS011;1668;49.648;8.570;2023-11-21T10:57:24;6.73;;;4.87;;
3311;SDS011;1668;49.648;8.570;2023-11-21T10:59:53;7.37;;;4.70;;
3311;SDS011;1668;49.648;8.570;2023-11-21T11:02:23;7.80;;;4.90;;
3311;SDS011;1668;49.648;8.570;2023-11-21T11:04:53;9.77;;;5.37;;
3311;SDS011;1668;49.648;8.570;2023-11-21T11:07:20;6.07;;;4.40;;
3311;SDS011;1668;49.648;8.570;2023-11-21T11:09:50;7.00;;;5.27;;
3311;SDS011;1668;49.648;8.570;2023-11-21T11:12:18;8.00;;;5.30;;
3311;SDS011;1668;49.648;8.570;2023-11-21T11:14:45;7.60;;;4.97;;
3311;SDS011;1668;49.648;8.570;2023-11-21T11:17:14;7.37;;;5.00;;
3311;SDS011;1668;49.648;8.570;2023-11-21T11:19:41;12.23;;;5.73;;
3311;SDS011;1668;49.648;8.570;2023-11-21T11:22:12;6.73;;;4.97;;
3311;SDS011;1668;49.648;8.570;2023-11-21T11:24:55;6.67;;;4.80;;
3311;SDS011;1668;49.648;8.570;2023-11-21T11:27:44;11.17;;;6.07;;
3311;SDS011;1668;49.648;8.570;2023-11-21T11:30:21;7.40;;;5.40;;
3311;SDS011;1668;49.648;8.570;2023-11-21T11:33:06;8.33;;;5.63;;
3311;SDS011;1668;49.648;8.570;2023-11-21T11:35:40;9.13;;;5.80;;
3311;SDS011;1668;49.648;8.570;2023-11-21T11:38:22;6.33;;;4.90;;
3311;SDS011;1668;49.648;8.570;2023-11-21T11:40:52;7.17;;;5.57;;
3311;SDS011;1668;49.648;8.570;2023-11-21T11:43:24;7.20;;;4.93;;
3311;SDS011;1668;49.648;8.570;2023-11-21T11:45:51;7.30;;;4.63;;
3311;SDS011;1668;49.648;8.570;2023-11-21T11:48:22;8.20;;;4.60;;
3311;SDS011;1668;49.648;8.570;2023-11-21T11:51:02;7.07;;;4.80;;
3311;SDS011;1668;49.648;8.570;2023-11-21T11:53:35;7.23;;;4.43;;
3311;SDS011;1668;49.648;8.570;2023-11-21T11:56:25;9.50;;;5.03;;
3311;SDS011;1668;49.648;8.570;2023-11-21T11:58:55;7.20;;;4.57;;
3311;SDS011;1668;49.648;8.570;2023-11-21T12:01:24;6.00;;;4.40;;
3311;SDS011;1668;49.648;8.570;2023-11-21T12:06:56;5.20;;;3.83;;
3311;SDS011;1668;49.648;8.570;2023-11-21T12:09:27;7.43;;;4.53;;
3311;SDS011;1668;49.648;8.570;2023-11-21T12:11:56;6.53;;;4.40;;
3311;SDS011;1668;49.648;8.570;2023-11-21T12:14:23;4.60;;;3.73;;
3311;SDS011;1668;49.648;8.570;2023-11-21T12:16:50;6.63;;;3.40;;
3311;SDS011;1668;49.648;8.570;2023-11-21T12:19:18;4.10;;;3.30;;
3311;SDS011;1668;49.648;8.570;2023-11-21T12:21:49;5.90;;;2.97;;
3311;SDS011;1668;49.648;8.570;2023-11-21T12:24:16;5.23;;;2.40;;
3311;SDS011;1668;49.648;8.570;2023-11-21T12:26:43;3.00;;;2.47;;
3311;SDS011;1668;49.648;8.570;2023-11-21T12:29:10;3.50;;;2.30;;
3311;SDS011;1668;49.648;8.570;2023-11-21T12:31:37;5.10;;;2.90;;
3311;SDS011;1668;49.648;8.570;2023-11-21T12:34:04;3.67;;;2.47;;
3311;SDS011;1668;49.648;8.570;2023-11-21T12:36:31;5.00;;;2.80;;
3311;SDS011;1668;49.648;8.570;2023-11-21T12:39:01;4.93;;;2.87;;
3311;SDS011;1668;49.648;8.570;2023-11-21T12:41:28;4.03;;;3.07;;
3311;SDS011;1668;49.648;8.570;2023-11-21T12:43:56;4.60;;;3.30;;
3311;SDS011;1668;49.648;8.570;2023-11-21T12:46:23;5.77;;;3.57;;
3311;SDS011;1668;49.648;8.570;2023-11-21T12:48:54;4.30;;;3.07;;
3311;SDS011;1668;49.648;8.570;2023-11-21T12:51:21;5.90;;;3.33;;
3311;SDS011;1668;49.648;8.570;2023-11-21T12:53:48;5.30;;;3.57;;
3311;SDS011;1668;49.648;8.570;2023-11-21T12:56:17;6.13;;;3.43;;
3311;SDS011;1668;49.648;8.570;2023-11-21T12:58:45;5.40;;;3.43;;
3311;SDS011;1668;49.648;8.570;2023-11-21T13:01:13;3.47;;;3.03;;
3311;SDS011;1668;49.648;8.570;2023-11-21T13:03:44;6.57;;;3.27;;
3311;SDS011;1668;49.648;8.570;2023-11-21T13:06:13;4.40;;;2.93;;
3311;SDS011;1668;49.648;8.570;2023-11-21T13:08:41;5.83;;;3.10;;
3311;SDS011;1668;49.648;8.570;2023-11-21T13:11:10;6.10;;;3.60;;
3311;SDS011;1668;49.648;8.570;2023-11-21T13:13:39;7.90;;;3.37;;
3311;SDS011;1668;49.648;8.570;2023-11-21T13:16:08;5.43;;;3.10;;
3311;SDS011;1668;49.648;8.570;2023-11-21T13:18:36;6.57;;;3.33;;
3311;SDS011;1668;49.648;8.570;2023-11-21T13:21:05;4.80;;;2.60;;
3311;SDS011;1668;49.648;8.570;2023-11-21T13:23:36;6.17;;;2.67;;
3311;SDS011;1668;49.648;8.570;2023-11-21T13:26:03;5.73;;;2.70;;
3311;SDS011;1668;49.648;8.570;2023-11-21T13:28:30;5.90;;;3.00;;
3311;SDS011;1668;49.648;8.570;2023-11-21T13:30:59;4.90;;;3.13;;
3311;SDS011;1668;49.648;8.570;2023-11-21T13:33:34;4.87;;;2.90;;
3311;SDS011;1668;49.648;8.570;2023-11-21T13:36:03;5.10;;;2.77;;
3311;SDS011;1668;49.648;8.570;2023-11-21T13:38:33;5.00;;;2.70;;
3311;SDS011;1668;49.648;8.570;2023-11-21T13:41:01;3.57;;;2.77;;
3311;SDS011;1668;49.648;8.570;2023-11-21T13:43:28;5.50;;;2.97;;
3311;SDS011;1668;49.648;8.570;2023-11-21T13:45:56;6.90;;;3.67;;
3311;SDS011;1668;49.648;8.570;2023-11-21T13:48:27;4.50;;;2.90;;
3311;SDS011;1668;49.648;8.570;2023-11-21T13:50:59;9.67;;;3.10;;
3311;SDS011;1668;49.648;8.570;2023-11-21T13:53:35;6.93;;;3.60;;
3311;SDS011;1668;49.648;8.570;2023-11-21T13:56:04;6.43;;;3.60;;
3311;SDS011;1668;49.648;8.570;2023-11-21T13:58:31;5.17;;;3.40;;
3311;SDS011;1668;49.648;8.570;2023-11-21T14:01:06;4.07;;;3.03;;
3311;SDS011;1668;49.648;8.570;2023-11-21T14:03:43;7.27;;;4.73;;
3311;SDS011;1668;49.648;8.570;2023-11-21T14:06:17;6.00;;;4.07;;
3311;SDS011;1668;49.648;8.570;2023-11-21T14:08:49;6.33;;;3.40;;
3311;SDS011;1668;49.648;8.570;2023-11-21T14:11:16;6.83;;;3.97;;
3311;SDS011;1668;49.648;8.570;2023-11-21T14:13:43;6.90;;;3.57;;
3311;SDS011;1668;49.648;8.570;2023-11-21T14:16:13;6.00;;;3.40;;
3311;SDS011;1668;49.648;8.570;2023-11-21T14:18:43;7.20;;;3.33;;
3311;SDS011;1668;49.648;8.570;2023-11-21T14:21:20;7.60;;;3.77;;
3311;SDS011;1668;49.648;8.570;2023-11-21T14:23:47;18.83;;;4.00;;
3311;SDS011;1668;49.648;8.570;2023-11-21T14:26:14;10.27;;;4.17;;
3311;SDS011;1668;49.648;8.570;2023-11-21T14:28:42;9.27;;;4.00;;
3311;SDS011;1668;49.648;8.570;2023-11-21T14:31:09;9.47;;;4.07;;
3311;SDS011;1668;49.648;8.570;2023-11-21T14:33:38;7.70;;;3.53;;
3311;SDS011;1668;49.648;8.570;2023-11-21T14:36:07;6.40;;;3.20;;
3311;SDS011;1668;49.648;8.570;2023-11-21T14:38:35;6.83;;;3.30;;
3311;SDS011;1668;49.648;8.570;2023-11-21T14:41:02;7.00;;;3.80;;
3311;SDS011;1668;49.648;8.570;2023-11-21T14:43:32;7.53;;;4.10;;
3311;SDS011;1668;49.648;8.570;2023-11-21T14:46:00;8.60;;;3.50;;
3311;SDS011;1668;49.648;8.570;2023-11-21T14:48:28;9.73;;;4.03;;
3311;SDS011;1668;49.648;8.570;2023-11-21T14:51:08;5.83;;;3.97;;
3311;SDS011;1668;49.648;8.570;2023-11-21T14:53:52;8.17;;;4.20;;
3311;SDS011;1668;49.648;8.570;2023-11-21T14:56:19;6.93;;;4.10;;
3311;SDS011;1668;49.648;8.570;2023-11-21T14:58:51;12.07;;;3.97;;
3311;SDS011;1668;49.648;8.570;2023-11-21T15:01:19;6.40;;;3.90;;
3311;SDS011;1668;49.648;8.570;2023-11-21T15:03:58;8.30;;;4.30;;
3311;SDS011;1668;49.648;8.570;2023-11-21T15:06:27;10.20;;;4.90;;
3311;SDS011;1668;49.648;8.570;2023-11-21T15:08:55;8.07;;;4.40;;
3311;SDS011;1668;49.648;8.570;2023-11-21T15:11:55;8.20;;;4.60;;
3311;SDS011;1668;49.648;8.570;2023-11-21T15:14:28;9.03;;;4.80;;
3311;SDS011;1668;49.648;8.570;2023-11-21T15:16:56;15.03;;;4.00;;
3311;SDS011;1668;49.648;8.570;2023-11-21T15:19:25;7.13;;;4.00;;
3311;SDS011;1668;49.648;8.570;2023-11-21T15:21:54;6.17;;;3.50;;
3311;SDS011;1668;49.648;8.570;2023-11-21T15:24:21;6.53;;;3.50;;